Time;durP1;ratioP1;P1;durP2;ratioP2;P2;SDS_P1;SDS_P2;PMS_P1;PMS_P2;Temp;Humidity;BMP_temperature;BMP_pressure;BME280_temperature;BME280_humidity;BME280_pressure;Samples;Min_cycle;Max_cycle;Signal;HPM_P1;HPM_P2
2021/05/31 00:01:37;;;;;;;1.37;0.40;;;;;;;12.28;72.42;99568.83;1703070;82;21170;-51
2021/05/31 00:04:04;;;;;;;1.42;0.40;;;;;;;12.28;72.50;99570.66;1701753;82;21378;-51
2021/05/31 00:06:42;;;;;;;3.30;0.88;;;;;;;12.25;72.47;99567.65;1700598;82;21593;-49
2021/05/31 00:09:08;;;;;;;1.77;0.47;;;;;;;12.24;72.49;99577.21;1705109;82;20977;-53
2021/05/31 00:11:36;;;;;;;0.70;0.40;;;;;;;12.22;72.53;99579.99;1701861;82;21110;-50
2021/05/31 00:14:05;;;;;;;4.55;0.30;;;;;;;12.22;72.48;99577.77;1703393;82;21139;-51
2021/05/31 00:16:33;;;;;;;1.87;0.30;;;;;;;12.19;72.39;99577.94;1701840;82;21545;-53
2021/05/31 00:19:01;;;;;;;1.50;0.40;;;;;;;12.17;72.41;99580.72;1714960;80;21139;-53
2021/05/31 00:21:29;;;;;;;0.90;0.40;;;;;;;12.13;72.57;99580.52;1745229;80;21108;-50
2021/05/31 00:23:55;;;;;;;2.85;0.50;;;;;;;12.10;72.69;99588.77;1746172;80;21694;-54
2021/05/31 00:26:23;;;;;;;0.50;0.37;;;;;;;12.08;72.65;99587.98;1745436;80;21549;-53
2021/05/31 00:28:51;;;;;;;4.40;0.60;;;;;;;12.08;72.61;99586.63;1742582;80;22428;-49
2021/05/31 00:31:18;;;;;;;2.10;0.40;;;;;;;12.09;72.74;99587.03;1743209;80;21107;-50
2021/05/31 00:33:44;;;;;;;2.65;0.90;;;;;;;12.07;72.65;99581.75;1742774;80;21552;-49
2021/05/31 00:36:12;;;;;;;4.22;0.40;;;;;;;12.06;72.78;99587.22;1744721;80;21133;-50
2021/05/31 00:38:41;;;;;;;2.85;0.30;;;;;;;12.00;72.84;99592.47;1709743;82;20948;-50
2021/05/31 00:41:08;;;;;;;4.72;0.37;;;;;;;11.95;73.07;99589.17;1724137;81;20914;-49
2021/05/31 00:43:34;;;;;;;0.72;0.40;;;;;;;11.90;73.18;99590.41;1722998;81;21108;-53
2021/05/31 00:46:05;;;;;;;3.08;0.50;;;;;;;11.84;73.30;99591.59;1728085;81;21601;-49
2021/05/31 00:48:32;;;;;;;3.08;0.35;;;;;;;11.81;73.50;99594.48;1728234;81;21486;-50
2021/05/31 00:51:03;;;;;;;0.50;0.30;;;;;;;11.82;73.87;99603.44;1724616;81;21020;-50
2021/05/31 00:53:29;;;;;;;3.90;0.50;;;;;;;11.79;73.72;99599.08;1720028;81;21127;-49
2021/05/31 00:55:56;;;;;;;5.95;0.30;;;;;;;11.78;73.75;99598.69;1722070;81;21155;-55
2021/05/31 00:58:28;;;;;;;1.45;0.30;;;;;;;11.77;73.85;99599.64;1726652;81;20934;-52
2021/05/31 01:00:57;;;;;;;3.50;0.30;;;;;;;11.76;73.86;99597.89;1724440;81;21598;-49
2021/05/31 01:03:24;;;;;;;4.47;0.40;;;;;;;11.75;73.98;99603.77;1725227;81;21036;-49
2021/05/31 01:05:50;;;;;;;4.15;0.50;;;;;;;11.76;74.08;99596.55;1681953;83;22165;-53
2021/05/31 01:08:20;;;;;;;3.83;0.50;;;;;;;11.79;74.07;99599.08;1719008;81;21151;-54
2021/05/31 01:10:51;;;;;;;0.53;0.40;;;;;;;11.81;74.05;99599.88;1724030;81;20973;-51
2021/05/31 01:13:24;;;;;;;1.22;0.30;;;;;;;11.87;74.00;99597.30;1696012;81;21055;-50
2021/05/31 01:15:55;;;;;;;15.15;0.65;;;;;;;11.91;74.04;99598.38;1724318;81;21135;-52
2021/05/31 01:18:38;;;;;;;4.10;0.30;;;;;;;11.94;73.90;99598.22;1725188;81;21095;-50
2021/05/31 01:21:25;;;;;;;1.00;0.33;;;;;;;11.99;73.93;99602.02;1716876;81;21133;-53
2021/05/31 01:24:16;;;;;;;3.08;0.40;;;;;;;12.04;73.94;99595.40;1693234;83;21566;-50
2021/05/31 01:27:04;;;;;;;4.00;0.42;;;;;;;12.07;73.91;99593.02;1724762;81;21602;-51
2021/05/31 01:29:31;;;;;;;1.50;0.50;;;;;;;12.09;73.74;99602.74;1722312;81;21119;-50
2021/05/31 01:32:04;;;;;;;4.92;0.50;;;;;;;12.10;73.58;99596.39;1723252;81;21589;-51
2021/05/31 01:34:33;;;;;;;0.80;0.40;;;;;;;12.08;73.50;99592.03;1722845;81;21530;-52
2021/05/31 01:37:13;;;;;;;1.45;0.57;;;;;;;12.05;73.54;99597.63;1721562;81;21188;-51
2021/05/31 01:39:41;;;;;;;4.40;0.50;;;;;;;11.98;73.54;99601.15;1726422;81;21667;-53
2021/05/31 01:42:08;;;;;;;2.52;0.40;;;;;;;11.94;73.78;99609.01;1725515;81;21167;-50
2021/05/31 01:44:34;;;;;;;1.30;0.30;;;;;;;11.92;73.89;99601.47;1721179;81;21092;-49
2021/05/31 01:47:00;;;;;;;1.52;0.30;;;;;;;11.96;74.05;99606.23;1729327;81;20949;-52
2021/05/31 01:49:27;;;;;;;0.50;0.50;;;;;;;11.98;74.13;99610.59;1722717;81;21056;-54
2021/05/31 01:51:54;;;;;;;2.15;0.30;;;;;;;12.00;74.22;99610.00;1720708;81;22781;-53
2021/05/31 01:54:21;;;;;;;3.08;0.47;;;;;;;11.98;74.18;99610.59;1723056;81;21393;-55
2021/05/31 01:56:50;;;;;;;2.22;0.40;;;;;;;11.98;74.27;99609.72;1703013;81;21124;-56
2021/05/31 01:59:19;;;;;;;2.67;0.40;;;;;;;11.97;74.49;99617.42;1722119;81;21510;-52
2021/05/31 02:01:46;;;;;;;2.52;0.50;;;;;;;11.95;74.55;99621.54;1723887;81;21704;-52
2021/05/31 02:04:13;;;;;;;2.75;0.30;;;;;;;11.95;74.52;99626.06;1725408;81;22140;-50
2021/05/31 02:06:39;;;;;;;4.40;0.57;;;;;;;11.93;74.49;99621.22;1720799;81;21019;-51
2021/05/31 02:09:06;;;;;;;1.57;0.47;;;;;;;11.85;74.56;99628.39;1721639;81;22337;-52
2021/05/31 02:11:45;;;;;;;6.40;0.50;;;;;;;11.75;74.40;99628.50;1725035;81;21113;-51
2021/05/31 02:14:33;;;;;;;1.50;0.45;;;;;;;11.69;74.67;99625.64;1723791;81;21145;-52
2021/05/31 02:17:46;;;;;;;3.42;0.80;;;;;;;11.65;74.75;99627.26;1724436;81;21641;-51
2021/05/31 02:20:14;;;;;;;0.68;0.50;;;;;;;11.62;74.64;99625.59;1720266;81;21557;-50
2021/05/31 02:22:46;;;;;;;3.60;0.40;;;;;;;11.60;74.63;99632.02;1713417;81;21898;-50
2021/05/31 02:25:13;;;;;;;0.80;0.40;;;;;;;11.63;74.70;99635.42;1714470;81;21121;-51
2021/05/31 02:27:41;;;;;;;1.60;0.40;;;;;;;11.66;74.62;99629.84;1717158;81;21121;-52
2021/05/31 02:30:09;;;;;;;2.65;0.50;;;;;;;11.70;74.44;99631.91;1681840;83;21258;-51
2021/05/31 02:33:54;;;;;;;0.67;0.47;;;;;;;11.75;74.06;99628.50;1797423;78;24478;-51
2021/05/31 02:36:23;;;;;;;1.80;0.50;;;;;;;11.72;74.03;99634.05;1769828;78;21123;-50
2021/05/31 02:38:49;;;;;;;2.77;0.60;;;;;;;11.74;73.78;99634.38;1766453;79;21512;-49
2021/05/31 02:41:16;;;;;;;2.20;0.43;;;;;;;11.75;73.66;99635.24;1762882;79;21628;-52
2021/05/31 02:43:42;;;;;;;3.42;0.50;;;;;;;11.75;73.46;99631.20;1739946;80;21233;-51
2021/05/31 02:46:08;;;;;;;5.50;0.47;;;;;;;11.76;73.39;99639.69;1682269;83;21379;-51
2021/05/31 02:48:34;;;;;;;2.55;0.50;;;;;;;11.78;73.30;99639.13;1677994;83;21072;-51
2021/05/31 02:51:01;;;;;;;6.37;0.60;;;;;;;11.77;72.97;99637.86;1698252;81;21078;-53
2021/05/31 02:53:29;;;;;;;6.05;0.60;;;;;;;11.73;73.13;99639.37;1701881;81;21219;-53
2021/05/31 02:55:55;;;;;;;1.00;0.50;;;;;;;11.73;73.19;99638.02;1673469;83;21371;-50
2021/05/31 02:58:21;;;;;;;1.20;0.53;;;;;;;11.73;73.12;99639.37;1677800;83;21159;-52
2021/05/31 03:00:48;;;;;;;4.92;0.60;;;;;;;11.74;73.03;99640.20;1685928;83;21103;-51
2021/05/31 03:03:15;;;;;;;4.08;0.60;;;;;;;11.72;73.04;99634.05;1686196;83;21139;-51
2021/05/31 03:05:41;;;;;;;2.27;0.50;;;;;;;11.72;73.02;99639.45;1680528;83;21170;-53
2021/05/31 03:08:08;;;;;;;1.22;0.50;;;;;;;11.68;72.97;99636.03;1680635;83;21127;-50
2021/05/31 03:10:36;;;;;;;0.85;0.47;;;;;;;11.63;73.09;99635.91;1674813;83;21131;-51
2021/05/31 03:13:03;;;;;;;1.65;0.40;;;;;;;11.64;73.21;99630.43;1699479;81;21088;-50
2021/05/31 03:15:29;;;;;;;2.62;0.50;;;;;;;11.70;73.28;99635.48;1677202;83;21673;-51
2021/05/31 03:17:55;;;;;;;2.62;0.40;;;;;;;11.76;73.22;99636.98;1706514;81;20932;-52
2021/05/31 03:20:27;;;;;;;4.70;1.17;;;;;;;11.81;73.18;99630.02;1705240;81;21316;-51
2021/05/31 03:22:53;;;;;;;1.05;0.50;;;;;;;11.86;73.14;99631.97;1679103;83;20989;-51
2021/05/31 03:25:19;;;;;;;0.60;0.40;;;;;;;11.85;73.06;99633.79;1703670;81;20937;-51
2021/05/31 03:27:46;;;;;;;4.28;0.40;;;;;;;11.82;72.85;99637.16;1685885;83;21549;-52
2021/05/31 03:30:13;;;;;;;1.50;0.50;;;;;;;11.79;73.00;99632.79;1681406;83;20981;-51
2021/05/31 03:32:40;;;;;;;2.47;0.40;;;;;;;11.76;72.95;99636.98;1679521;83;21112;-51
2021/05/31 03:35:08;;;;;;;5.58;0.53;;;;;;;11.75;73.28;99637.94;1671515;84;20969;-50
2021/05/31 03:37:35;;;;;;;0.70;0.40;;;;;;;11.77;73.39;99636.04;1659332;83;20994;-54
2021/05/31 03:40:02;;;;;;;2.50;0.47;;;;;;;11.78;73.29;99640.48;1723303;81;21191;-50
2021/05/31 03:42:28;;;;;;;1.27;0.80;;;;;;;11.78;73.48;99636.44;1722803;80;21056;-50
2021/05/31 03:44:55;;;;;;;3.17;0.55;;;;;;;11.79;73.58;99636.84;1725112;81;21571;-50
2021/05/31 03:47:21;;;;;;;5.45;0.60;;;;;;;11.83;73.66;99634.34;1721331;81;21075;-50
2021/05/31 03:49:47;;;;;;;5.83;0.50;;;;;;;11.89;73.63;99640.77;1720767;81;21096;-50
2021/05/31 03:52:14;;;;;;;1.92;0.50;;;;;;;11.96;73.55;99635.91;1727730;81;21147;-52
2021/05/31 03:54:40;;;;;;;2.15;0.50;;;;;;;12.03;73.54;99637.30;1717091;81;21084;-51
2021/05/31 03:57:07;;;;;;;1.60;0.47;;;;;;;12.11;73.20;99641.30;1722338;81;21088;-51
2021/05/31 03:59:33;;;;;;;1.65;0.90;;;;;;;12.19;72.88;99642.22;1720623;81;21120;-50
2021/05/31 04:02:01;;;;;;;3.40;0.60;;;;;;;12.23;72.71;99637.05;1681286;83;21009;-54
2021/05/31 04:04:31;;;;;;;2.37;0.60;;;;;;;12.25;72.69;99631.58;1656580;83;21129;-51
2021/05/31 04:12:11;;;;;;;;;;;;;;;12.45;72.34;99637.55;1723026;81;21147;-49
2021/05/31 04:14:39;;;;;;;1.00;0.45;;;;;;;12.53;71.77;99633.53;1721813;81;20278;-51
2021/05/31 04:17:05;;;;;;;1.75;0.57;;;;;;;12.54;71.23;99631.23;1718405;81;21816;-51
2021/05/31 04:19:33;;;;;;;1.27;0.47;;;;;;;12.53;70.91;99627.66;1721388;81;21398;-47
2021/05/31 04:22:03;;;;;;;2.77;0.60;;;;;;;12.51;70.84;99622.82;1722810;81;20985;-50
2021/05/31 04:24:30;;;;;;;0.60;0.50;;;;;;;12.48;70.29;99627.06;1729226;81;21141;-50
2021/05/31 04:26:56;;;;;;;2.05;0.60;;;;;;;12.40;70.66;99634.73;1720964;81;21103;-50
2021/05/31 04:29:22;;;;;;;4.33;0.50;;;;;;;12.32;70.80;99636.53;1714293;81;21593;-54
2021/05/31 04:31:49;;;;;;;1.17;0.50;;;;;;;12.30;71.17;99638.92;1723299;81;21100;-50
2021/05/31 04:34:15;;;;;;;1.87;0.50;;;;;;;12.30;71.21;99636.22;1735181;81;21579;-49
2021/05/31 04:36:43;;;;;;;4.67;0.60;;;;;;;12.31;71.45;99640.66;1732410;80;21048;-49
2021/05/31 04:39:09;;;;;;;1.85;0.50;;;;;;;12.32;71.65;99647.33;1665231;83;21534;-49
2021/05/31 04:41:36;;;;;;;0.93;0.50;;;;;;;12.40;71.66;99643.71;1683390;83;21605;-54
2021/05/31 04:44:04;;;;;;;5.85;0.70;;;;;;;12.46;71.69;99639.78;1697495;82;21032;-50
2021/05/31 04:46:32;;;;;;;0.70;0.42;;;;;;;12.53;71.77;99638.45;1689730;82;21502;-51
2021/05/31 04:49:01;;;;;;;1.67;0.40;;;;;;;12.58;70.85;99637.73;1685397;83;21481;-50
2021/05/31 04:51:26;;;;;;;2.77;0.47;;;;;;;12.60;70.42;99640.31;1695277;82;21198;-54
2021/05/31 04:53:54;;;;;;;1.57;0.50;;;;;;;12.62;70.50;99641.11;1677050;83;21183;-54
2021/05/31 04:56:20;;;;;;;0.85;0.40;;;;;;;12.69;70.67;99649.23;1661806;83;21174;-50
2021/05/31 04:58:46;;;;;;;1.55;0.40;;;;;;;12.78;70.44;99641.47;1678341;83;21092;-52
2021/05/31 05:01:13;;;;;;;1.15;0.30;;;;;;;12.86;69.91;99640.53;1681898;83;21178;-49
2021/05/31 05:03:40;;;;;;;0.72;0.35;;;;;;;12.96;69.22;99633.23;1669909;83;21382;-52
2021/05/31 05:06:06;;;;;;;1.57;0.40;;;;;;;13.03;68.96;99632.77;1682937;83;21146;-54
2021/05/31 05:08:34;;;;;;;1.10;0.40;;;;;;;13.13;68.71;99635.79;1692234;82;21212;-53
2021/05/31 05:11:00;;;;;;;2.83;0.50;;;;;;;13.20;68.31;99629.95;1683143;83;21473;-53
2021/05/31 05:13:27;;;;;;;0.55;0.30;;;;;;;13.22;68.08;99642.02;1683576;83;21151;-55
2021/05/31 05:15:54;;;;;;;1.07;0.45;;;;;;;13.23;67.58;99643.29;1683230;83;21135;-54
2021/05/31 05:18:21;;;;;;;1.62;0.50;;;;;;;13.23;67.25;99640.59;1688115;83;21123;-56
2021/05/31 05:20:47;;;;;;;0.62;0.40;;;;;;;13.17;67.02;99638.27;1684219;83;21111;-55
2021/05/31 05:23:13;;;;;;;1.37;0.50;;;;;;;13.17;66.76;99642.32;1688976;83;21063;-54
2021/05/31 05:25:40;;;;;;;1.05;0.50;;;;;;;13.18;66.96;99640.48;1670922;83;21569;-54
2021/05/31 05:28:06;;;;;;;0.60;0.50;;;;;;;13.24;67.20;99642.81;1677825;83;22438;-53
2021/05/31 05:30:33;;;;;;;1.02;0.60;;;;;;;13.31;67.18;99640.59;1693135;82;21171;-53
2021/05/31 05:33:00;;;;;;;2.70;0.60;;;;;;;13.32;66.66;99641.86;1675678;83;21792;-53
2021/05/31 05:46:22;;;;;;;3.37;0.82;;;;;;;13.37;67.27;99643.78;1668531;83;21148;-53
2021/05/31 05:48:32;;;;;;;1.35;0.60;;;;;;;13.43;67.38;99650.19;1724479;81;21094;-53
2021/05/31 05:51:05;;;;;;;1.40;0.70;;;;;;;13.42;66.54;99661.09;1727646;80;22449;-54
2021/05/31 05:53:37;;;;;;;2.35;0.70;;;;;;;13.33;66.52;99656.25;1730739;80;20949;-55
2021/05/31 05:56:11;;;;;;;2.98;0.60;;;;;;;13.24;66.59;99663.08;1666361;83;21230;-54
2021/05/31 05:58:38;;;;;;;3.95;0.60;;;;;;;13.18;66.76;99655.35;1726451;80;21147;-53
2021/05/31 06:01:06;;;;;;;1.57;0.60;;;;;;;13.21;66.83;99660.08;1730241;80;21115;-53
2021/05/31 06:03:32;;;;;;;3.58;0.80;;;;;;;13.29;66.95;99658.73;1730187;80;21509;-54
2021/05/31 06:06:00;;;;;;;2.45;0.60;;;;;;;13.39;66.77;99654.52;1724889;80;21143;-54
2021/05/31 06:08:27;;;;;;;0.70;0.65;;;;;;;13.43;65.81;99658.30;1729355;80;21961;-53
2021/05/31 06:10:53;;;;;;;1.70;0.57;;;;;;;13.39;65.36;99652.68;1734619;80;21420;-55
2021/05/31 06:13:20;;;;;;;2.17;0.72;;;;;;;13.33;65.52;99652.19;1731383;80;21486;-55
2021/05/31 06:15:47;;;;;;;1.07;0.82;;;;;;;13.31;65.99;99657.69;1733247;81;21016;-53
2021/05/31 06:18:13;;;;;;;4.35;0.98;;;;;;;13.32;66.59;99657.20;1734493;80;21533;-53
2021/05/31 06:20:39;;;;;;;2.10;0.60;;;;;;;13.37;67.21;99655.08;1737244;80;21455;-54
2021/05/31 06:23:08;;;;;;;2.37;0.60;;;;;;;13.40;67.12;99650.84;1728488;80;20941;-54
2021/05/31 06:25:35;;;;;;;1.90;0.50;;;;;;;13.42;65.52;99652.98;1731457;80;20941;-54
2021/05/31 06:28:02;;;;;;;1.30;0.90;;;;;;;13.42;65.73;99663.80;1732749;80;21490;-55
2021/05/31 06:30:28;;;;;;;6.67;1.32;;;;;;;13.42;65.71;99661.97;1726709;80;21477;-54
2021/05/31 06:32:55;;;;;;;1.17;0.90;;;;;;;13.38;65.58;99659.05;1731966;80;22049;-53
2021/05/31 06:35:23;;;;;;;5.87;1.10;;;;;;;13.34;65.87;99661.56;1672287;83;20991;-55
2021/05/31 06:37:49;;;;;;;3.17;0.72;;;;;;;13.29;65.90;99664.14;1732960;80;20961;-55
2021/05/31 06:40:16;;;;;;;1.57;0.72;;;;;;;13.26;66.04;99662.52;1728460;80;21115;-54
2021/05/31 06:42:44;;;;;;;3.40;1.07;;;;;;;13.24;66.14;99657.67;1732353;80;21112;-54
2021/05/31 06:45:21;;;;;;;3.33;0.70;;;;;;;13.23;66.20;99662.69;1730422;80;22985;-53
2021/05/31 06:47:43;;;;;;;4.17;1.27;;;;;;;13.25;66.73;99662.99;1726551;80;20957;-55
2021/05/31 06:50:10;;;;;;;1.10;0.80;;;;;;;13.31;66.40;99666.27;1730171;80;20981;-55
2021/05/31 06:52:37;;;;;;;9.53;1.47;;;;;;;13.34;66.22;99667.45;1728033;80;21830;-56
2021/05/31 06:55:06;;;;;;;5.75;1.10;;;;;;;13.35;65.42;99665.14;1723847;80;22155;-55
2021/05/31 06:57:32;;;;;;;3.35;0.68;;;;;;;13.32;65.59;99664.84;1729123;80;21102;-54
2021/05/31 06:59:59;;;;;;;7.78;1.92;;;;;;;13.32;65.55;99662.61;1730365;80;21103;-54
2021/05/31 07:02:25;;;;;;;4.75;2.08;;;;;;;13.29;65.07;99662.79;1728877;80;21075;-55
2021/05/31 07:04:52;;;;;;;5.00;2.35;;;;;;;13.25;65.29;99666.18;1726875;80;21095;-52
2021/05/31 07:07:22;;;;;;;2.83;0.70;;;;;;;13.23;65.26;99658.64;1691984;82;21072;-55
2021/05/31 07:09:50;;;;;;;2.85;0.80;;;;;;;13.23;65.19;99659.50;1670002;83;21614;-54
2021/05/31 07:12:17;;;;;;;0.70;0.53;;;;;;;13.28;65.19;99660.56;1687715;82;21668;-54
2021/05/31 07:14:46;;;;;;;5.35;0.60;;;;;;;13.36;65.47;99654.69;1674033;83;21293;-53
2021/05/31 07:17:13;;;;;;;3.70;0.70;;;;;;;13.46;64.99;99659.45;1728894;80;21116;-53
2021/05/31 07:19:41;;;;;;;2.00;0.55;;;;;;;13.56;64.99;99658.41;1669591;83;21147;-53
2021/05/31 07:22:08;;;;;;;2.22;0.62;;;;;;;13.61;63.99;99661.67;1673591;83;21076;-54
2021/05/31 07:24:35;;;;;;;1.57;0.70;;;;;;;13.61;63.71;99665.25;1731925;80;21075;-54
2021/05/31 07:27:01;;;;;;;3.17;0.70;;;;;;;13.57;64.40;99669.12;1729177;80;21056;-54
2021/05/31 07:29:29;;;;;;;4.80;0.60;;;;;;;13.55;64.65;99665.64;1723181;80;21148;-56
2021/05/31 07:31:55;;;;;;;2.25;0.60;;;;;;;13.61;65.04;99661.67;1731766;80;20993;-53
2021/05/31 07:34:21;;;;;;;3.60;0.80;;;;;;;13.72;65.14;99661.89;1730222;80;21541;-54
2021/05/31 07:36:48;;;;;;;1.87;0.70;;;;;;;13.88;64.16;99661.80;1730583;80;21585;-54
2021/05/31 07:39:14;;;;;;;4.08;0.70;;;;;;;13.99;63.48;99668.75;1723251;80;21103;-54
2021/05/31 07:41:40;;;;;;;2.27;0.85;;;;;;;14.02;63.05;99665.87;1732463;80;21124;-57
2021/05/31 07:44:06;;;;;;;0.72;0.42;;;;;;;14.03;61.78;99666.73;1722888;80;21115;-55
2021/05/31 07:46:33;;;;;;;6.65;0.60;;;;;;;14.03;60.81;99663.55;1724111;80;22288;-54
2021/05/31 07:49:00;;;;;;;1.75;0.50;;;;;;;14.01;60.32;99662.77;1728783;80;21799;-54
2021/05/31 07:51:27;;;;;;;4.10;0.70;;;;;;;13.96;60.16;99663.52;1727698;80;21131;-54
2021/05/31 07:53:56;;;;;;;3.72;0.50;;;;;;;13.89;60.05;99667.11;1733379;80;21262;-54
2021/05/31 07:56:27;;;;;;;2.30;1.00;;;;;;;13.86;59.95;99665.10;1693322;82;21016;-53
2021/05/31 07:58:56;;;;;;;1.35;0.68;;;;;;;13.80;60.12;99667.69;1732805;80;21968;-54
2021/05/31 08:01:23;;;;;;;4.50;0.50;;;;;;;13.80;60.12;99669.52;1690043;82;21064;-52
2021/05/31 08:03:50;;;;;;;3.05;0.50;;;;;;;13.81;60.86;99677.55;1726691;80;21116;-54
2021/05/31 08:06:16;;;;;;;1.22;0.60;;;;;;;13.82;60.42;99671.66;1728008;80;21984;-53
2021/05/31 08:08:43;;;;;;;0.78;0.40;;;;;;;13.81;59.21;99668.08;1731392;80;21617;-54
2021/05/31 08:11:10;;;;;;;0.95;0.40;;;;;;;13.77;59.60;99676.50;1727184;80;21540;-52
2021/05/31 08:13:37;;;;;;;0.33;0.30;;;;;;;13.77;60.00;99680.08;1728176;80;21598;-54
2021/05/31 08:16:05;;;;;;;1.52;0.30;;;;;;;13.81;59.94;99686.14;1693408;82;21681;-54
2021/05/31 08:18:33;;;;;;;0.90;0.40;;;;;;;13.84;60.32;99681.42;1679641;83;21172;-53
2021/05/31 08:21:01;;;;;;;1.52;0.40;;;;;;;13.84;60.61;99686.84;1681251;83;21149;-53
2021/05/31 08:23:28;;;;;;;0.50;0.40;;;;;;;13.81;60.74;99694.27;1676564;83;21130;-54
2021/05/31 08:25:55;;;;;;;0.88;0.50;;;;;;;13.74;61.01;99691.08;1683676;83;21302;-53
2021/05/31 08:28:21;;;;;;;1.47;0.50;;;;;;;13.68;61.29;99690.11;1673922;83;21138;-54
2021/05/31 08:30:48;;;;;;;1.87;0.30;;;;;;;13.68;61.53;99685.19;1731140;80;21119;-53
2021/05/31 08:33:14;;;;;;;0.62;0.30;;;;;;;13.71;62.00;99691.73;1728057;80;21107;-55
2021/05/31 08:35:42;;;;;;;3.60;0.30;;;;;;;13.79;61.58;99694.35;1727821;80;21390;-54
2021/05/31 08:38:09;;;;;;;5.45;0.30;;;;;;;13.89;61.37;99693.30;1725970;80;21152;-53
2021/05/31 08:40:37;;;;;;;1.85;0.30;;;;;;;13.98;61.18;99688.18;1733107;80;21638;-54
2021/05/31 08:43:04;;;;;;;0.47;0.30;;;;;;;14.11;60.85;99692.83;1728734;80;21056;-53
2021/05/31 08:45:31;;;;;;;3.40;0.30;;;;;;;14.20;61.05;99687.70;1725476;80;21127;-56
2021/05/31 08:47:59;;;;;;;0.30;0.20;;;;;;;14.30;60.71;99690.18;1732205;80;21489;-54
2021/05/31 08:50:31;;;;;;;1.65;0.20;;;;;;;14.35;59.71;99693.48;1727804;80;21137;-54
2021/05/31 08:55:29;;;;;;;0.70;0.30;;;;;;;14.34;59.92;99694.92;1862867;75;23578;-54
2021/05/31 08:57:56;;;;;;;1.67;0.30;;;;;;;14.29;60.21;99689.79;1838445;77;21271;-54
2021/05/31 09:00:27;;;;;;;0.80;0.20;;;;;;;14.26;60.18;99691.84;1837057;77;22880;-55
2021/05/31 09:02:55;;;;;;;1.50;0.30;;;;;;;14.23;59.96;99687.48;1836415;77;21340;-53
2021/05/31 09:05:31;;;;;;;0.95;0.20;;;;;;;14.22;60.29;99691.64;1836632;77;21104;-55
2021/05/31 09:08:02;;;;;;;0.72;0.30;;;;;;;14.26;60.40;99694.55;1840824;77;20928;-57
2021/05/31 09:10:45;;;;;;;0.40;0.20;;;;;;;14.33;60.41;99698.59;1839786;77;20911;-54
2021/05/31 09:13:39;;;;;;;1.20;0.20;;;;;;;14.39;60.23;99695.52;1840276;77;21625;-54
2021/05/31 09:16:12;;;;;;;1.10;0.30;;;;;;;14.48;60.54;99692.70;1835895;77;20931;-53
2021/05/31 09:18:39;;;;;;;2.20;0.30;;;;;;;14.59;59.78;99699.65;1842186;77;20921;-54
2021/05/31 09:21:42;;;;;;;1.57;0.35;;;;;;;14.62;59.50;99694.05;1845276;76;20945;-53
2021/05/31 09:24:14;;;;;;;1.85;0.30;;;;;;;14.62;59.59;99691.34;1837674;77;21414;-53
2021/05/31 09:26:59;;;;;;;0.25;0.13;;;;;;;14.66;59.99;99696.44;1839560;77;21773;-53
2021/05/31 09:29:28;;;;;;;0.65;0.30;;;;;;;14.71;59.16;99697.50;1800111;78;20936;-53
2021/05/31 09:32:04;;;;;;;0.30;0.30;;;;;;;14.72;59.48;99696.50;1772565;79;20916;-55
2021/05/31 09:34:31;;;;;;;0.53;0.30;;;;;;;14.74;58.11;99700.86;1774177;79;20987;-54
2021/05/31 09:37:00;;;;;;;1.70;0.40;;;;;;;14.69;57.82;99702.14;1797168;78;21429;-54
2021/05/31 09:39:35;;;;;;;1.35;0.30;;;;;;;14.66;58.18;99700.50;1783183;79;21649;-54
2021/05/31 09:42:13;;;;;;;4.20;0.30;;;;;;;14.63;58.31;99691.20;1786098;77;21072;-53
2021/05/31 09:44:42;;;;;;;1.87;0.30;;;;;;;14.62;58.20;99705.75;1773897;79;20956;-53
2021/05/31 09:47:09;;;;;;;0.55;0.30;;;;;;;14.54;57.73;99708.58;1742587;80;21683;-54
2021/05/31 09:49:35;;;;;;;4.72;0.30;;;;;;;14.38;57.96;99704.13;1748268;80;21102;-53
2021/05/31 09:52:07;;;;;;;2.92;0.35;;;;;;;14.29;58.14;99711.45;1765429;79;21157;-54
2021/05/31 09:54:40;;;;;;;0.62;0.30;;;;;;;14.31;58.67;99712.71;1764369;79;21612;-54
2021/05/31 09:57:28;;;;;;;4.67;0.30;;;;;;;14.36;59.07;99714.66;1764695;79;20999;-55
2021/05/31 10:00:20;;;;;;;0.88;0.20;;;;;;;14.36;59.07;99714.66;1763993;79;21067;-54
2021/05/31 10:03:14;;;;;;;0.33;0.20;;;;;;;14.40;58.35;99710.80;1766569;79;21675;-55
2021/05/31 10:11:03;;;;;;;0.65;0.20;;;;;;;14.39;57.73;99707.70;1752101;80;23304;-53
2021/05/31 10:13:31;;;;;;;0.88;0.25;;;;;;;14.38;57.65;99717.66;1756243;80;22261;-55
2021/05/31 10:16:01;;;;;;;0.45;0.20;;;;;;;14.41;57.81;99706.25;1783108;78;21558;-55
2021/05/31 10:18:26;;;;;;;0.23;0.13;;;;;;;14.48;57.47;99711.17;1782065;78;21099;-54
2021/05/31 10:20:53;;;;;;;0.90;0.23;;;;;;;14.59;57.12;99712.71;1754508;80;21509;-56
2021/05/31 10:23:20;;;;;;;0.40;0.30;;;;;;;14.74;56.92;99711.70;1755933;80;20953;-54
2021/05/31 10:26:03;;;;;;;0.30;0.30;;;;;;;14.87;56.19;99713.13;1754562;80;22474;-53
2021/05/31 10:28:30;;;;;;;0.20;0.20;;;;;;;15.14;56.72;99701.77;1786656;78;21143;-53
2021/05/31 10:31:04;;;;;;;0.68;0.20;;;;;;;15.14;56.72;99701.77;1787154;78;21641;-53
2021/05/31 10:33:30;;;;;;;;;;;;;;;15.29;55.21;99713.44;1790470;79;21338;-55
2021/05/31 10:36:22;;;;;;;1.55;0.13;;;;;;;15.39;54.84;99709.13;1768984;79;20220;-54
2021/05/31 10:38:50;;;;;;;0.33;0.17;;;;;;;15.41;53.00;99707.64;1769678;80;21138;-56
2021/05/31 10:41:20;;;;;;;1.12;0.10;;;;;;;15.38;53.97;99707.87;1757322;80;20966;-53
2021/05/31 10:43:55;;;;;;;0.30;0.20;;;;;;;15.43;54.62;99709.77;1783493;78;22129;-54
2021/05/31 10:46:29;;;;;;;1.62;0.20;;;;;;;15.45;54.92;99701.91;1783978;78;21136;-54
2021/05/31 10:48:57;;;;;;;0.42;0.20;;;;;;;15.48;54.50;99707.62;1766115;80;21312;-54
2021/05/31 10:51:27;;;;;;;0.30;0.20;;;;;;;15.54;54.05;99705.87;1766009;80;21052;-53
2021/05/31 10:53:54;;;;;;;1.00;0.20;;;;;;;15.56;53.76;99700.34;1765240;80;21129;-54
2021/05/31 10:56:25;;;;;;;2.20;0.30;;;;;;;15.57;54.56;99706.16;1756239;79;21894;-53
2021/05/31 10:58:55;;;;;;;0.55;0.30;;;;;;;15.59;55.05;99711.83;1758088;80;21080;-54
2021/05/31 11:01:28;;;;;;;1.80;0.30;;;;;;;15.61;54.99;99711.24;1758567;80;20931;-56
2021/05/31 11:04:03;;;;;;;0.47;0.20;;;;;;;15.61;55.04;99708.53;1759190;79;21280;-54
2021/05/31 11:06:37;;;;;;;1.27;0.30;;;;;;;15.65;55.07;99711.39;1755575;80;21042;-55
2021/05/31 11:09:19;;;;;;;0.42;0.20;;;;;;;15.66;54.94;99702.28;1752185;80;21700;-55
2021/05/31 11:11:52;;;;;;;2.05;0.30;;;;;;;15.65;54.99;99711.91;1756764;80;21138;-54
2021/05/31 11:14:40;;;;;;;0.20;0.20;;;;;;;15.61;54.50;99714.45;1755208;79;21095;-54
2021/05/31 11:17:16;;;;;;;0.33;0.20;;;;;;;15.62;54.50;99719.77;1757509;80;20988;-54
2021/05/31 11:19:49;;;;;;;0.30;0.20;;;;;;;15.60;53.74;99728.98;1754007;80;21079;-53
2021/05/31 11:22:30;;;;;;;4.42;0.20;;;;;;;15.50;54.37;99713.78;1760809;79;21459;-55
2021/05/31 11:25:04;;;;;;;0.30;0.20;;;;;;;15.37;54.54;99717.84;1755952;79;21123;-54
2021/05/31 11:27:36;;;;;;;0.93;0.20;;;;;;;15.33;55.85;99719.50;1751855;80;21104;-54
2021/05/31 11:30:14;;;;;;;0.25;0.20;;;;;;;15.35;54.79;99717.56;1754240;80;21066;-53
2021/05/31 11:32:41;;;;;;;0.23;0.23;;;;;;;15.28;54.79;99713.53;1758884;79;21098;-54
2021/05/31 11:35:11;;;;;;;0.25;0.20;;;;;;;15.36;55.83;99709.33;1752772;80;21104;-53
2021/05/31 11:37:37;;;;;;;0.40;0.20;;;;;;;15.36;55.83;99709.33;1756484;80;21408;-54
2021/05/31 11:40:07;;;;;;;1.57;0.20;;;;;;;15.42;55.94;99703.95;1755983;79;21597;-55
2021/05/31 11:42:34;;;;;;;0.90;0.30;;;;;;;15.52;55.68;99702.34;1760866;79;21075;-54
2021/05/31 11:45:03;;;;;;;0.37;0.20;;;;;;;15.63;54.37;99697.58;1758725;80;21105;-54
2021/05/31 11:47:30;;;;;;;1.12;0.30;;;;;;;15.68;54.76;99690.84;1755810;80;21037;-54
2021/05/31 11:49:59;;;;;;;0.90;0.35;;;;;;;15.74;55.31;99694.47;1756225;79;21146;-54
2021/05/31 11:52:28;;;;;;;0.30;0.20;;;;;;;15.76;54.66;99700.67;1759093;80;20976;-53
2021/05/31 11:54:54;;;;;;;0.30;0.20;;;;;;;15.68;54.04;99694.91;1756846;80;21938;-53
2021/05/31 11:57:21;;;;;;;0.60;0.10;;;;;;;15.60;54.42;99697.78;1757148;80;21067;-54
2021/05/31 11:59:51;;;;;;;2.42;0.10;;;;;;;15.60;53.82;99700.49;1755336;79;21687;-56
2021/05/31 12:02:25;;;;;;;5.30;0.20;;;;;;;15.57;53.16;99702.08;1760196;80;20904;-54
2021/05/31 12:04:51;;;;;;;1.17;0.30;;;;;;;15.49;54.27;99699.84;1756528;80;20972;-54
2021/05/31 12:07:24;;;;;;;0.98;0.10;;;;;;;15.48;54.21;99704.39;1758782;80;21060;-53
2021/05/31 12:09:52;;;;;;;0.20;0.17;;;;;;;15.48;54.21;99713.05;1758350;79;21585;-54